sensor_id;sensor_type;location;lat;lon;timestamp;P1;durP1;ratioP1;P2;durP2;ratioP2
20381;SDS011;10350;51.280;12.400;2023-03-14T00:00:57;3.25;;;2.97;;
20381;SDS011;10350;51.280;12.400;2023-03-14T00:03:23;3.15;;;2.95;;
20381;SDS011;10350;51.280;12.400;2023-03-14T00:05:49;3.05;;;2.85;;
20381;SDS011;10350;51.280;12.400;2023-03-14T00:08:15;2.75;;;2.65;;
20381;SDS011;10350;51.280;12.400;2023-03-14T00:10:41;3.28;;;2.97;;
20381;SDS011;10350;51.280;12.400;2023-03-14T00:13:06;3.35;;;3.05;;
20381;SDS011;10350;51.280;12.400;2023-03-14T00:15:33;2.83;;;2.55;;
20381;SDS011;10350;51.280;12.400;2023-03-14T00:17:59;3.47;;;3.20;;
20381;SDS011;10350;51.280;12.400;2023-03-14T00:20:26;3.13;;;2.92;;
20381;SDS011;10350;51.280;12.400;2023-03-14T00:22:52;3.78;;;3.15;;
20381;SDS011;10350;51.280;12.400;2023-03-14T00:25:18;4.65;;;3.35;;
20381;SDS011;10350;51.280;12.400;2023-03-14T00:27:44;3.20;;;2.92;;
20381;SDS011;10350;51.280;12.400;2023-03-14T00:30:11;3.35;;;3.15;;
20381;SDS011;10350;51.280;12.400;2023-03-14T00:32:37;4.88;;;3.00;;
20381;SDS011;10350;51.280;12.400;2023-03-14T00:35:03;3.53;;;3.08;;
20381;SDS011;10350;51.280;12.400;2023-03-14T00:37:29;3.03;;;2.83;;
20381;SDS011;10350;51.280;12.400;2023-03-14T00:39:55;3.30;;;3.03;;
20381;SDS011;10350;51.280;12.400;2023-03-14T00:42:23;4.13;;;3.45;;
20381;SDS011;10350;51.280;12.400;2023-03-14T00:44:49;3.15;;;2.90;;
20381;SDS011;10350;51.280;12.400;2023-03-14T00:47:15;5.45;;;3.50;;
20381;SDS011;10350;51.280;12.400;2023-03-14T00:49:41;3.10;;;2.90;;
20381;SDS011;10350;51.280;12.400;2023-03-14T00:52:08;3.70;;;3.50;;
20381;SDS011;10350;51.280;12.400;2023-03-14T00:54:34;3.50;;;3.30;;
20381;SDS011;10350;51.280;12.400;2023-03-14T00:57:00;3.63;;;3.42;;
20381;SDS011;10350;51.280;12.400;2023-03-14T00:59:26;3.60;;;3.40;;
20381;SDS011;10350;51.280;12.400;2023-03-14T01:01:52;3.88;;;3.58;;
20381;SDS011;10350;51.280;12.400;2023-03-14T01:04:18;3.88;;;3.67;;
20381;SDS011;10350;51.280;12.400;2023-03-14T01:06:44;4.07;;;3.78;;
20381;SDS011;10350;51.280;12.400;2023-03-14T01:09:10;3.40;;;3.10;;
20381;SDS011;10350;51.280;12.400;2023-03-14T01:11:36;3.47;;;3.28;;
20381;SDS011;10350;51.280;12.400;2023-03-14T01:14:02;3.78;;;3.58;;
20381;SDS011;10350;51.280;12.400;2023-03-14T01:16:30;3.67;;;3.47;;
20381;SDS011;10350;51.280;12.400;2023-03-14T01:18:56;3.60;;;3.40;;
20381;SDS011;10350;51.280;12.400;2023-03-14T01:21:26;3.40;;;3.20;;
20381;SDS011;10350;51.280;12.400;2023-03-14T01:23:56;3.50;;;3.25;;
20381;SDS011;10350;51.280;12.400;2023-03-14T01:26:23;3.42;;;3.25;;
20381;SDS011;10350;51.280;12.400;2023-03-14T01:28:50;3.50;;;3.28;;
20381;SDS011;10350;51.280;12.400;2023-03-14T01:31:17;3.40;;;3.28;;
20381;SDS011;10350;51.280;12.400;2023-03-14T01:33:45;3.75;;;3.45;;
20381;SDS011;10350;51.280;12.400;2023-03-14T01:36:11;3.38;;;3.17;;
20381;SDS011;10350;51.280;12.400;2023-03-14T01:38:38;3.88;;;3.67;;
20381;SDS011;10350;51.280;12.400;2023-03-14T01:41:05;3.53;;;3.33;;
20381;SDS011;10350;51.280;12.400;2023-03-14T01:43:31;2.90;;;2.80;;
20381;SDS011;10350;51.280;12.400;2023-03-14T01:50:59;3.55;;;3.25;;
20381;SDS011;10350;51.280;12.400;2023-03-14T01:53:26;3.25;;;3.05;;
20381;SDS011;10350;51.280;12.400;2023-03-14T01:55:53;3.42;;;3.22;;
20381;SDS011;10350;51.280;12.400;2023-03-14T02:00:47;3.47;;;3.28;;
20381;SDS011;10350;51.280;12.400;2023-03-14T02:03:17;3.80;;;3.47;;
20381;SDS011;10350;51.280;12.400;2023-03-14T02:05:43;3.30;;;3.10;;
20381;SDS011;10350;51.280;12.400;2023-03-14T02:08:13;3.22;;;3.10;;
20381;SDS011;10350;51.280;12.400;2023-03-14T02:10:43;3.38;;;3.20;;
20381;SDS011;10350;51.280;12.400;2023-03-14T02:13:10;3.15;;;2.95;;
20381;SDS011;10350;51.280;12.400;2023-03-14T02:15:36;3.20;;;3.00;;
20381;SDS011;10350;51.280;12.400;2023-03-14T02:18:03;2.72;;;2.63;;
20381;SDS011;10350;51.280;12.400;2023-03-14T02:20:34;2.88;;;2.78;;
20381;SDS011;10350;51.280;12.400;2023-03-14T02:23:04;3.30;;;2.90;;
20381;SDS011;10350;51.280;12.400;2023-03-14T02:25:47;3.28;;;3.08;;
20381;SDS011;10350;51.280;12.400;2023-03-14T02:28:14;2.85;;;2.75;;
20381;SDS011;10350;51.280;12.400;2023-03-14T02:30:41;3.17;;;2.90;;
20381;SDS011;10350;51.280;12.400;2023-03-14T02:33:08;2.85;;;2.75;;
20381;SDS011;10350;51.280;12.400;2023-03-14T02:35:58;2.97;;;2.88;;
20381;SDS011;10350;51.280;12.400;2023-03-14T02:40:50;3.22;;;2.60;;
20381;SDS011;10350;51.280;12.400;2023-03-14T02:43:16;2.60;;;2.50;;
20381;SDS011;10350;51.280;12.400;2023-03-14T02:45:43;2.90;;;2.80;;
20381;SDS011;10350;51.280;12.400;2023-03-14T02:48:17;3.20;;;3.03;;
20381;SDS011;10350;51.280;12.400;2023-03-14T02:50:44;2.78;;;2.67;;
20381;SDS011;10350;51.280;12.400;2023-03-14T02:53:12;3.20;;;3.03;;
20381;SDS011;10350;51.280;12.400;2023-03-14T02:55:38;2.95;;;2.80;;
20381;SDS011;10350;51.280;12.400;2023-03-14T02:58:04;2.72;;;2.63;;
20381;SDS011;10350;51.280;12.400;2023-03-14T03:00:30;3.63;;;3.33;;
20381;SDS011;10350;51.280;12.400;2023-03-14T03:02:58;2.80;;;2.70;;
20381;SDS011;10350;51.280;12.400;2023-03-14T03:05:24;3.03;;;2.83;;
20381;SDS011;10350;51.280;12.400;2023-03-14T03:07:50;3.30;;;3.10;;
20381;SDS011;10350;51.280;12.400;2023-03-14T03:10:16;2.95;;;2.78;;
20381;SDS011;10350;51.280;12.400;2023-03-14T03:12:42;3.13;;;2.92;;
20381;SDS011;10350;51.280;12.400;2023-03-14T03:15:09;3.05;;;2.80;;
20381;SDS011;10350;51.280;12.400;2023-03-14T03:17:35;3.25;;;3.05;;
20381;SDS011;10350;51.280;12.400;2023-03-14T03:20:01;2.78;;;2.58;;
20381;SDS011;10350;51.280;12.400;2023-03-14T03:24:55;2.92;;;2.83;;
20381;SDS011;10350;51.280;12.400;2023-03-14T03:27:21;2.97;;;2.80;;
20381;SDS011;10350;51.280;12.400;2023-03-14T03:29:47;3.10;;;2.85;;
20381;SDS011;10350;51.280;12.400;2023-03-14T03:32:13;3.15;;;3.05;;
20381;SDS011;10350;51.280;12.400;2023-03-14T03:34:39;2.90;;;2.70;;
20381;SDS011;10350;51.280;12.400;2023-03-14T03:37:05;3.92;;;2.58;;
20381;SDS011;10350;51.280;12.400;2023-03-14T03:39:31;3.13;;;2.88;;
20381;SDS011;10350;51.280;12.400;2023-03-14T03:41:57;2.80;;;2.70;;
20381;SDS011;10350;51.280;12.400;2023-03-14T03:44:23;3.90;;;2.60;;
20381;SDS011;10350;51.280;12.400;2023-03-14T03:46:49;3.30;;;2.70;;
20381;SDS011;10350;51.280;12.400;2023-03-14T03:49:15;4.35;;;2.50;;
20381;SDS011;10350;51.280;12.400;2023-03-14T03:51:41;3.42;;;2.70;;
20381;SDS011;10350;51.280;12.400;2023-03-14T03:54:07;2.78;;;2.58;;
20381;SDS011;10350;51.280;12.400;2023-03-14T03:56:33;2.60;;;2.40;;
20381;SDS011;10350;51.280;12.400;2023-03-14T03:58:59;2.83;;;2.63;;
20381;SDS011;10350;51.280;12.400;2023-03-14T04:01:25;4.28;;;2.50;;
20381;SDS011;10350;51.280;12.400;2023-03-14T04:03:51;2.90;;;2.70;;
20381;SDS011;10350;51.280;12.400;2023-03-14T04:06:17;3.00;;;2.72;;
20381;SDS011;10350;51.280;12.400;2023-03-14T04:08:43;3.60;;;2.88;;
20381;SDS011;10350;51.280;12.400;2023-03-14T04:11:09;3.67;;;2.83;;
20381;SDS011;10350;51.280;12.400;2023-03-14T04:13:35;4.35;;;2.95;;
20381;SDS011;10350;51.280;12.400;2023-03-14T04:16:02;4.60;;;3.08;;
20381;SDS011;10350;51.280;12.400;2023-03-14T04:18:28;3.47;;;2.85;;
20381;SDS011;10350;51.280;12.400;2023-03-14T04:20:55;3.72;;;3.42;;
20381;SDS011;10350;51.280;12.400;2023-03-14T04:23:22;3.15;;;2.90;;
20381;SDS011;10350;51.280;12.400;2023-03-14T04:25:49;2.95;;;2.75;;
20381;SDS011;10350;51.280;12.400;2023-03-14T04:28:15;3.40;;;3.15;;
20381;SDS011;10350;51.280;12.400;2023-03-14T04:30:42;3.33;;;3.05;;
20381;SDS011;10350;51.280;12.400;2023-03-14T04:33:08;3.25;;;3.08;;
20381;SDS011;10350;51.280;12.400;2023-03-14T04:35:34;3.30;;;2.92;;
20381;SDS011;10350;51.280;12.400;2023-03-14T04:38:00;3.30;;;3.10;;
20381;SDS011;10350;51.280;12.400;2023-03-14T04:40:26;3.30;;;3.08;;
20381;SDS011;10350;51.280;12.400;2023-03-14T04:42:52;4.05;;;3.60;;
20381;SDS011;10350;51.280;12.400;2023-03-14T04:45:18;4.43;;;3.05;;
20381;SDS011;10350;51.280;12.400;2023-03-14T04:47:44;3.38;;;2.88;;
20381;SDS011;10350;51.280;12.400;2023-03-14T04:50:10;2.90;;;2.75;;
20381;SDS011;10350;51.280;12.400;2023-03-14T04:52:36;4.60;;;3.45;;
20381;SDS011;10350;51.280;12.400;2023-03-14T04:55:02;3.33;;;3.00;;
20381;SDS011;10350;51.280;12.400;2023-03-14T04:57:28;3.58;;;3.38;;
20381;SDS011;10350;51.280;12.400;2023-03-14T04:59:54;5.45;;;3.50;;
20381;SDS011;10350;51.280;12.400;2023-03-14T05:02:20;3.03;;;2.80;;
20381;SDS011;10350;51.280;12.400;2023-03-14T05:04:48;3.30;;;3.10;;
20381;SDS011;10350;51.280;12.400;2023-03-14T05:07:15;4.40;;;3.30;;
20381;SDS011;10350;51.280;12.400;2023-03-14T05:09:41;3.22;;;2.90;;
20381;SDS011;10350;51.280;12.400;2023-03-14T05:12:07;3.13;;;2.92;;
20381;SDS011;10350;51.280;12.400;2023-03-14T05:14:33;4.18;;;3.05;;
20381;SDS011;10350;51.280;12.400;2023-03-14T05:16:59;3.85;;;3.63;;
20381;SDS011;10350;51.280;12.400;2023-03-14T05:19:25;3.88;;;3.60;;
20381;SDS011;10350;51.280;12.400;2023-03-14T05:21:51;3.85;;;3.45;;
20381;SDS011;10350;51.280;12.400;2023-03-14T05:24:17;3.45;;;3.15;;
20381;SDS011;10350;51.280;12.400;2023-03-14T05:26:43;3.53;;;3.33;;
20381;SDS011;10350;51.280;12.400;2023-03-14T05:29:10;3.40;;;3.15;;
20381;SDS011;10350;51.280;12.400;2023-03-14T05:31:36;3.47;;;3.17;;
20381;SDS011;10350;51.280;12.400;2023-03-14T05:34:02;3.75;;;3.45;;
20381;SDS011;10350;51.280;12.400;2023-03-14T05:36:28;4.85;;;3.47;;
20381;SDS011;10350;51.280;12.400;2023-03-14T05:38:54;5.97;;;3.70;;
20381;SDS011;10350;51.280;12.400;2023-03-14T05:41:20;9.88;;;4.22;;
20381;SDS011;10350;51.280;12.400;2023-03-14T05:43:47;5.07;;;3.90;;
20381;SDS011;10350;51.280;12.400;2023-03-14T05:46:13;5.85;;;3.20;;
20381;SDS011;10350;51.280;12.400;2023-03-14T05:48:39;5.05;;;3.63;;
20381;SDS011;10350;51.280;12.400;2023-03-14T05:51:05;4.57;;;3.40;;
20381;SDS011;10350;51.280;12.400;2023-03-14T05:53:31;3.50;;;3.20;;
20381;SDS011;10350;51.280;12.400;2023-03-14T05:55:57;9.85;;;4.00;;
20381;SDS011;10350;51.280;12.400;2023-03-14T05:58:23;4.47;;;3.28;;
20381;SDS011;10350;51.280;12.400;2023-03-14T06:00:49;4.70;;;3.42;;
20381;SDS011;10350;51.280;12.400;2023-03-14T06:03:15;5.60;;;3.53;;
20381;SDS011;10350;51.280;12.400;2023-03-14T06:05:48;4.28;;;3.40;;
20381;SDS011;10350;51.280;12.400;2023-03-14T06:08:16;4.43;;;3.40;;
20381;SDS011;10350;51.280;12.400;2023-03-14T06:10:42;6.93;;;3.80;;
20381;SDS011;10350;51.280;12.400;2023-03-14T06:13:08;4.50;;;3.28;;
20381;SDS011;10350;51.280;12.400;2023-03-14T06:15:34;3.63;;;3.25;;
20381;SDS011;10350;51.280;12.400;2023-03-14T06:18:00;3.78;;;2.80;;
20381;SDS011;10350;51.280;12.400;2023-03-14T06:20:26;3.22;;;2.92;;
20381;SDS011;10350;51.280;12.400;2023-03-14T06:22:52;3.72;;;3.28;;
20381;SDS011;10350;51.280;12.400;2023-03-14T06:25:19;5.20;;;2.72;;
20381;SDS011;10350;51.280;12.400;2023-03-14T06:27:45;3.33;;;2.97;;
20381;SDS011;10350;51.280;12.400;2023-03-14T06:30:11;3.28;;;2.85;;
20381;SDS011;10350;51.280;12.400;2023-03-14T06:32:37;3.08;;;2.80;;
20381;SDS011;10350;51.280;12.400;2023-03-14T06:35:03;3.72;;;2.75;;
20381;SDS011;10350;51.280;12.400;2023-03-14T06:37:29;3.17;;;2.97;;
20381;SDS011;10350;51.280;12.400;2023-03-14T06:39:55;3.20;;;2.97;;
20381;SDS011;10350;51.280;12.400;2023-03-14T06:42:21;5.90;;;2.78;;
20381;SDS011;10350;51.280;12.400;2023-03-14T06:44:47;2.95;;;2.75;;
20381;SDS011;10350;51.280;12.400;2023-03-14T06:47:13;9.05;;;3.10;;
20381;SDS011;10350;51.280;12.400;2023-03-14T06:49:39;4.07;;;3.10;;
20381;SDS011;10350;51.280;12.400;2023-03-14T06:52:05;2.72;;;2.58;;
20381;SDS011;10350;51.280;12.400;2023-03-14T06:54:31;3.40;;;3.17;;
20381;SDS011;10350;51.280;12.400;2023-03-14T06:56:57;3.65;;;2.88;;
20381;SDS011;10350;51.280;12.400;2023-03-14T06:59:23;6.03;;;2.90;;
20381;SDS011;10350;51.280;12.400;2023-03-14T07:01:49;10.15;;;3.10;;
20381;SDS011;10350;51.280;12.400;2023-03-14T07:04:15;3.05;;;2.85;;
20381;SDS011;10350;51.280;12.400;2023-03-14T07:06:41;3.17;;;2.97;;
20381;SDS011;10350;51.280;12.400;2023-03-14T07:09:09;4.80;;;3.13;;
20381;SDS011;10350;51.280;12.400;2023-03-14T07:11:35;3.00;;;2.65;;
20381;SDS011;10350;51.280;12.400;2023-03-14T07:14:02;3.00;;;2.80;;
20381;SDS011;10350;51.280;12.400;2023-03-14T07:16:28;3.10;;;2.70;;
20381;SDS011;10350;51.280;12.400;2023-03-14T07:21:22;5.97;;;2.50;;
20381;SDS011;10350;51.280;12.400;2023-03-14T07:23:48;2.88;;;2.70;;
20381;SDS011;10350;51.280;12.400;2023-03-14T07:26:14;3.83;;;2.85;;
20381;SDS011;10350;51.280;12.400;2023-03-14T07:28:40;3.22;;;2.85;;
20381;SDS011;10350;51.280;12.400;2023-03-14T07:31:06;6.30;;;2.50;;
20381;SDS011;10350;51.280;12.400;2023-03-14T07:33:32;2.88;;;2.67;;
20381;SDS011;10350;51.280;12.400;2023-03-14T07:35:58;3.15;;;2.42;;
20381;SDS011;10350;51.280;12.400;2023-03-14T07:38:24;5.97;;;2.33;;
20381;SDS011;10350;51.280;12.400;2023-03-14T07:40:50;4.97;;;3.00;;
20381;SDS011;10350;51.280;12.400;2023-03-14T07:43:16;3.20;;;2.88;;
20381;SDS011;10350;51.280;12.400;2023-03-14T07:45:45;3.03;;;2.70;;
20381;SDS011;10350;51.280;12.400;2023-03-14T07:48:11;3.92;;;2.65;;
20381;SDS011;10350;51.280;12.400;2023-03-14T07:50:37;4.60;;;2.70;;
20381;SDS011;10350;51.280;12.400;2023-03-14T07:53:03;5.40;;;2.88;;
20381;SDS011;10350;51.280;12.400;2023-03-14T07:55:29;3.38;;;3.08;;
20381;SDS011;10350;51.280;12.400;2023-03-14T07:57:55;5.70;;;3.28;;
20381;SDS011;10350;51.280;12.400;2023-03-14T08:00:21;3.10;;;2.95;;
20381;SDS011;10350;51.280;12.400;2023-03-14T08:02:47;3.30;;;3.10;;
20381;SDS011;10350;51.280;12.400;2023-03-14T08:05:13;3.65;;;3.10;;
20381;SDS011;10350;51.280;12.400;2023-03-14T08:07:39;3.10;;;2.80;;
20381;SDS011;10350;51.280;12.400;2023-03-14T08:10:05;2.60;;;2.50;;
20381;SDS011;10350;51.280;12.400;2023-03-14T08:12:31;3.78;;;3.47;;
20381;SDS011;10350;51.280;12.400;2023-03-14T08:14:57;4.05;;;3.10;;
20381;SDS011;10350;51.280;12.400;2023-03-14T08:17:24;4.35;;;2.60;;
20381;SDS011;10350;51.280;12.400;2023-03-14T08:19:50;3.03;;;2.83;;
20381;SDS011;10350;51.280;12.400;2023-03-14T08:22:16;4.65;;;2.97;;
20381;SDS011;10350;51.280;12.400;2023-03-14T08:24:42;3.40;;;3.10;;
20381;SDS011;10350;51.280;12.400;2023-03-14T08:27:08;4.78;;;3.35;;
20381;SDS011;10350;51.280;12.400;2023-03-14T08:29:34;3.03;;;2.75;;
20381;SDS011;10350;51.280;12.400;2023-03-14T08:32:00;6.00;;;2.90;;
20381;SDS011;10350;51.280;12.400;2023-03-14T08:34:26;3.50;;;3.05;;
20381;SDS011;10350;51.280;12.400;2023-03-14T08:36:52;3.50;;;3.20;;
20381;SDS011;10350;51.280;12.400;2023-03-14T08:39:18;3.42;;;3.13;;
20381;SDS011;10350;51.280;12.400;2023-03-14T08:41:44;3.17;;;2.97;;
20381;SDS011;10350;51.280;12.400;2023-03-14T08:44:10;2.90;;;2.70;;
20381;SDS011;10350;51.280;12.400;2023-03-14T08:46:38;3.50;;;3.00;;
20381;SDS011;10350;51.280;12.400;2023-03-14T08:49:04;3.20;;;2.83;;
20381;SDS011;10350;51.280;12.400;2023-03-14T08:51:30;2.50;;;2.40;;
20381;SDS011;10350;51.280;12.400;2023-03-14T08:53:56;3.75;;;3.20;;
20381;SDS011;10350;51.280;12.400;2023-03-14T08:56:22;3.03;;;2.75;;
20381;SDS011;10350;51.280;12.400;2023-03-14T08:58:48;2.58;;;2.47;;
20381;SDS011;10350;51.280;12.400;2023-03-14T09:01:14;3.33;;;3.03;;
20381;SDS011;10350;51.280;12.400;2023-03-14T09:03:40;5.68;;;3.15;;
20381;SDS011;10350;51.280;12.400;2023-03-14T09:06:08;3.38;;;3.10;;
20381;SDS011;10350;51.280;12.400;2023-03-14T09:08:34;3.55;;;3.03;;
20381;SDS011;10350;51.280;12.400;2023-03-14T09:11:00;3.20;;;3.00;;
20381;SDS011;10350;51.280;12.400;2023-03-14T09:13:26;4.40;;;3.20;;
20381;SDS011;10350;51.280;12.400;2023-03-14T09:15:53;4.40;;;3.42;;
20381;SDS011;10350;51.280;12.400;2023-03-14T09:18:19;4.30;;;3.10;;
20381;SDS011;10350;51.280;12.400;2023-03-14T09:20:45;4.45;;;2.92;;
20381;SDS011;10350;51.280;12.400;2023-03-14T09:23:11;2.78;;;2.58;;
20381;SDS011;10350;51.280;12.400;2023-03-14T09:25:37;3.15;;;2.95;;
20381;SDS011;10350;51.280;12.400;2023-03-14T09:28:04;5.25;;;3.05;;
20381;SDS011;10350;51.280;12.400;2023-03-14T09:30:30;3.40;;;3.10;;
20381;SDS011;10350;51.280;12.400;2023-03-14T09:32:56;5.53;;;2.92;;
20381;SDS011;10350;51.280;12.400;2023-03-14T09:35:22;2.83;;;2.72;;
20381;SDS011;10350;51.280;12.400;2023-03-14T09:37:48;3.55;;;3.35;;
20381;SDS011;10350;51.280;12.400;2023-03-14T09:40:15;3.50;;;3.20;;
20381;SDS011;10350;51.280;12.400;2023-03-14T09:42:42;3.20;;;3.00;;
20381;SDS011;10350;51.280;12.400;2023-03-14T09:45:41;3.45;;;3.15;;
20381;SDS011;10350;51.280;12.400;2023-03-14T09:48:01;5.32;;;3.28;;
20381;SDS011;10350;51.280;12.400;2023-03-14T09:53:14;3.00;;;2.85;;
20381;SDS011;10350;51.280;12.400;2023-03-14T09:55:42;5.22;;;3.38;;
20381;SDS011;10350;51.280;12.400;2023-03-14T09:58:09;3.35;;;3.20;;
20381;SDS011;10350;51.280;12.400;2023-03-14T10:00:36;3.60;;;3.38;;
20381;SDS011;10350;51.280;12.400;2023-03-14T10:05:37;5.80;;;5.40;;
20381;SDS011;10350;51.280;12.400;2023-03-14T10:08:03;5.30;;;4.70;;
20381;SDS011;10350;51.280;12.400;2023-03-14T10:10:29;5.50;;;5.10;;
20381;SDS011;10350;51.280;12.400;2023-03-14T10:12:59;6.93;;;5.32;;
20381;SDS011;10350;51.280;12.400;2023-03-14T10:15:30;5.45;;;5.05;;
20381;SDS011;10350;51.280;12.400;2023-03-14T10:17:58;5.30;;;4.80;;
20381;SDS011;10350;51.280;12.400;2023-03-14T10:22:57;4.30;;;3.90;;
20381;SDS011;10350;51.280;12.400;2023-03-14T10:25:28;5.30;;;3.08;;
20381;SDS011;10350;51.280;12.400;2023-03-14T10:27:54;3.35;;;3.15;;
20381;SDS011;10350;51.280;12.400;2023-03-14T10:33:23;3.38;;;2.92;;
20381;SDS011;10350;51.280;12.400;2023-03-14T10:35:57;2.47;;;2.38;;
20381;SDS011;10350;51.280;12.400;2023-03-14T10:38:25;2.42;;;2.33;;
20381;SDS011;10350;51.280;12.400;2023-03-14T10:40:52;2.85;;;2.63;;
20381;SDS011;10350;51.280;12.400;2023-03-14T10:43:21;2.50;;;2.40;;
20381;SDS011;10350;51.280;12.400;2023-03-14T10:45:56;2.92;;;2.72;;
20381;SDS011;10350;51.280;12.400;2023-03-14T10:48:33;3.30;;;3.00;;
20381;SDS011;10350;51.280;12.400;2023-03-14T10:53:32;3.13;;;2.40;;
20381;SDS011;10350;51.280;12.400;2023-03-14T10:55:59;2.67;;;2.50;;
20381;SDS011;10350;51.280;12.400;2023-03-14T10:58:28;3.78;;;2.95;;
20381;SDS011;10350;51.280;12.400;2023-03-14T11:01:29;3.75;;;3.60;;
20381;SDS011;10350;51.280;12.400;2023-03-14T11:06:49;5.03;;;4.63;;
20381;SDS011;10350;51.280;12.400;2023-03-14T11:14:46;4.25;;;3.85;;
20381;SDS011;10350;51.280;12.400;2023-03-14T11:17:16;4.00;;;3.70;;
20381;SDS011;10350;51.280;12.400;2023-03-14T11:20:24;3.53;;;2.85;;
20381;SDS011;10350;51.280;12.400;2023-03-14T11:22:39;3.30;;;2.75;;
20381;SDS011;10350;51.280;12.400;2023-03-14T11:25:15;2.63;;;2.45;;
20381;SDS011;10350;51.280;12.400;2023-03-14T11:27:45;2.50;;;2.40;;
20381;SDS011;10350;51.280;12.400;2023-03-14T11:35:22;2.35;;;2.25;;
20381;SDS011;10350;51.280;12.400;2023-03-14T11:37:54;2.85;;;2.75;;
20381;SDS011;10350;51.280;12.400;2023-03-14T11:40:22;2.70;;;2.60;;
20381;SDS011;10350;51.280;12.400;2023-03-14T11:43:34;2.80;;;2.60;;
20381;SDS011;10350;51.280;12.400;2023-03-14T11:45:35;2.58;;;2.47;;
20381;SDS011;10350;51.280;12.400;2023-03-14T11:48:16;2.83;;;2.55;;
20381;SDS011;10350;51.280;12.400;2023-03-14T11:50:43;2.38;;;2.28;;
20381;SDS011;10350;51.280;12.400;2023-03-14T11:53:57;2.88;;;2.78;;
20381;SDS011;10350;51.280;12.400;2023-03-14T11:55:56;4.35;;;3.55;;
20381;SDS011;10350;51.280;12.400;2023-03-14T11:58:26;4.40;;;4.20;;
20381;SDS011;10350;51.280;12.400;2023-03-14T12:00:53;4.75;;;4.55;;
20381;SDS011;10350;51.280;12.400;2023-03-14T12:03:29;4.65;;;4.35;;
20381;SDS011;10350;51.280;12.400;2023-03-14T12:08:42;3.92;;;3.72;;
20381;SDS011;10350;51.280;12.400;2023-03-14T12:11:13;5.18;;;4.97;;
20381;SDS011;10350;51.280;12.400;2023-03-14T12:13:40;4.70;;;4.35;;
20381;SDS011;10350;51.280;12.400;2023-03-14T12:16:09;5.05;;;4.65;;
20381;SDS011;10350;51.280;12.400;2023-03-14T12:18:44;4.97;;;4.47;;
20381;SDS011;10350;51.280;12.400;2023-03-14T12:21:11;3.92;;;3.72;;
20381;SDS011;10350;51.280;12.400;2023-03-14T12:23:41;4.00;;;3.78;;
20381;SDS011;10350;51.280;12.400;2023-03-14T12:28:37;4.00;;;3.83;;
20381;SDS011;10350;51.280;12.400;2023-03-14T12:31:46;4.47;;;4.28;;
20381;SDS011;10350;51.280;12.400;2023-03-14T12:34:02;5.05;;;4.72;;
20381;SDS011;10350;51.280;12.400;2023-03-14T12:39:19;4.75;;;4.45;;
20381;SDS011;10350;51.280;12.400;2023-03-14T12:49:53;2.72;;;2.53;;
20381;SDS011;10350;51.280;12.400;2023-03-14T12:52:44;3.13;;;2.92;;
20381;SDS011;10350;51.280;12.400;2023-03-14T12:55:17;2.78;;;2.58;;
20381;SDS011;10350;51.280;12.400;2023-03-14T12:57:47;2.92;;;2.72;;
20381;SDS011;10350;51.280;12.400;2023-03-14T13:00:20;3.13;;;2.92;;
20381;SDS011;10350;51.280;12.400;2023-03-14T13:02:47;2.60;;;2.50;;
20381;SDS011;10350;51.280;12.400;2023-03-14T13:12:40;3.40;;;3.20;;
20381;SDS011;10350;51.280;12.400;2023-03-14T13:15:13;3.08;;;2.97;;
20381;SDS011;10350;51.280;12.400;2023-03-14T13:17:40;3.17;;;2.97;;
20381;SDS011;10350;51.280;12.400;2023-03-14T13:20:15;2.80;;;2.70;;
20381;SDS011;10350;51.280;12.400;2023-03-14T13:22:46;2.97;;;2.80;;
20381;SDS011;10350;51.280;12.400;2023-03-14T13:25:12;2.40;;;2.30;;
20381;SDS011;10350;51.280;12.400;2023-03-14T13:27:38;2.83;;;2.70;;
20381;SDS011;10350;51.280;12.400;2023-03-14T13:32:43;2.60;;;2.50;;
20381;SDS011;10350;51.280;12.400;2023-03-14T13:35:17;2.95;;;2.75;;
20381;SDS011;10350;51.280;12.400;2023-03-14T13:37:44;2.97;;;2.78;;
20381;SDS011;10350;51.280;12.400;2023-03-14T13:43:33;3.97;;;3.78;;
20381;SDS011;10350;51.280;12.400;2023-03-14T13:48:27;4.57;;;4.35;;
20381;SDS011;10350;51.280;12.400;2023-03-14T13:51:01;4.33;;;4.13;;
20381;SDS011;10350;51.280;12.400;2023-03-14T13:53:28;4.30;;;4.10;;
20381;SDS011;10350;51.280;12.400;2023-03-14T13:55:55;4.10;;;3.90;;
20381;SDS011;10350;51.280;12.400;2023-03-14T13:58:28;4.15;;;3.85;;
20381;SDS011;10350;51.280;12.400;2023-03-14T14:01:37;4.15;;;3.92;;
20381;SDS011;10350;51.280;12.400;2023-03-14T14:03:45;4.07;;;3.83;;
20381;SDS011;10350;51.280;12.400;2023-03-14T14:08:47;3.53;;;3.40;;
20381;SDS011;10350;51.280;12.400;2023-03-14T14:11:18;3.25;;;3.15;;
20381;SDS011;10350;51.280;12.400;2023-03-14T14:13:45;3.30;;;3.10;;
20381;SDS011;10350;51.280;12.400;2023-03-14T14:16:11;3.22;;;3.03;;
20381;SDS011;10350;51.280;12.400;2023-03-14T14:18:38;3.08;;;2.95;;
20381;SDS011;10350;51.280;12.400;2023-03-14T14:21:04;3.28;;;3.15;;
20381;SDS011;10350;51.280;12.400;2023-03-14T14:23:31;3.42;;;3.33;;
20381;SDS011;10350;51.280;12.400;2023-03-14T14:25:58;3.45;;;3.35;;
20381;SDS011;10350;51.280;12.400;2023-03-14T14:33:27;4.00;;;3.80;;
20381;SDS011;10350;51.280;12.400;2023-03-14T14:35:54;3.75;;;3.55;;
20381;SDS011;10350;51.280;12.400;2023-03-14T14:38:21;3.92;;;3.72;;
20381;SDS011;10350;51.280;12.400;2023-03-14T14:40:48;4.68;;;4.43;;
20381;SDS011;10350;51.280;12.400;2023-03-14T14:43:25;4.90;;;4.70;;
20381;SDS011;10350;51.280;12.400;2023-03-14T14:45:52;4.13;;;3.92;;
20381;SDS011;10350;51.280;12.400;2023-03-14T14:48:23;5.20;;;4.18;;
20381;SDS011;10350;51.280;12.400;2023-03-14T14:50:50;4.95;;;4.65;;
20381;SDS011;10350;51.280;12.400;2023-03-14T14:55:59;4.10;;;3.90;;
20381;SDS011;10350;51.280;12.400;2023-03-14T14:58:29;3.08;;;2.97;;
20381;SDS011;10350;51.280;12.400;2023-03-14T15:01:02;2.47;;;2.28;;
20381;SDS011;10350;51.280;12.400;2023-03-14T15:03:29;2.63;;;2.53;;
20381;SDS011;10350;51.280;12.400;2023-03-14T15:05:56;2.38;;;2.28;;
20381;SDS011;10350;51.280;12.400;2023-03-14T15:08:23;2.60;;;2.40;;
20381;SDS011;10350;51.280;12.400;2023-03-14T15:10:50;2.67;;;2.50;;
20381;SDS011;10350;51.280;12.400;2023-03-14T15:13:16;2.20;;;2.10;;
20381;SDS011;10350;51.280;12.400;2023-03-14T15:15:42;2.25;;;2.13;;
20381;SDS011;10350;51.280;12.400;2023-03-14T15:18:15;2.15;;;2.05;;
20381;SDS011;10350;51.280;12.400;2023-03-14T15:20:42;2.67;;;2.47;;
20381;SDS011;10350;51.280;12.400;2023-03-14T15:23:15;3.10;;;2.90;;
20381;SDS011;10350;51.280;12.400;2023-03-14T15:25:41;4.65;;;2.10;;
20381;SDS011;10350;51.280;12.400;2023-03-14T15:30:42;2.33;;;1.85;;
20381;SDS011;10350;51.280;12.400;2023-03-14T15:33:08;2.90;;;1.70;;
20381;SDS011;10350;51.280;12.400;2023-03-14T15:35:41;2.00;;;1.88;;
20381;SDS011;10350;51.280;12.400;2023-03-14T15:38:11;1.90;;;1.80;;
20381;SDS011;10350;51.280;12.400;2023-03-14T15:40:37;3.95;;;1.88;;
20381;SDS011;10350;51.280;12.400;2023-03-14T15:43:03;2.85;;;1.88;;
20381;SDS011;10350;51.280;12.400;2023-03-14T15:45:30;3.10;;;1.90;;
20381;SDS011;10350;51.280;12.400;2023-03-14T15:47:56;3.05;;;2.03;;
20381;SDS011;10350;51.280;12.400;2023-03-14T15:50:22;1.90;;;1.80;;
20381;SDS011;10350;51.280;12.400;2023-03-14T15:52:48;2.03;;;1.50;;
20381;SDS011;10350;51.280;12.400;2023-03-14T15:55:14;2.50;;;1.80;;
20381;SDS011;10350;51.280;12.400;2023-03-14T15:57:41;1.90;;;1.80;;
20381;SDS011;10350;51.280;12.400;2023-03-14T16:00:10;1.60;;;1.50;;
20381;SDS011;10350;51.280;12.400;2023-03-14T16:02:38;1.77;;;1.40;;